createdAt,value
2022-09-23T00:00:35.397Z,4.50
2022-09-23T00:03:02.012Z,4.50
2022-09-23T00:05:29.733Z,4.50
2022-09-23T00:07:56.884Z,4.50
2022-09-23T00:10:24.281Z,4.40
2022-09-23T00:12:50.883Z,4.30
2022-09-23T00:15:17.721Z,4.30
2022-09-23T00:17:44.600Z,4.30
2022-09-23T00:20:11.292Z,4.30
2022-09-23T00:22:38.010Z,4.30
2022-09-23T00:25:05.864Z,4.30
2022-09-23T00:27:33.838Z,4.20
2022-09-23T00:30:00.916Z,4.20
2022-09-23T00:32:27.625Z,4.20
2022-09-23T00:34:54.185Z,4.20
2022-09-23T00:37:20.764Z,4.20
2022-09-23T00:39:47.461Z,4.30
2022-09-23T00:42:16.231Z,4.20
2022-09-23T00:44:49.976Z,4.20
2022-09-23T00:47:28.414Z,4.20
2022-09-23T00:50:36.796Z,4.20
2022-09-23T00:53:05.627Z,4.30
2022-09-23T00:55:42.012Z,4.30
2022-09-23T00:58:10.988Z,4.20
2022-09-23T01:00:37.809Z,4.20
2022-09-23T01:03:06.082Z,4.10
2022-09-23T01:05:33.468Z,4.10
2022-09-23T01:08:00.224Z,4.00
2022-09-23T01:10:26.794Z,4.00
2022-09-23T01:13:07.792Z,3.90
2022-09-23T01:15:58.688Z,3.90
2022-09-23T01:18:41.852Z,3.80
2022-09-23T01:21:27.935Z,3.80
2022-09-23T01:23:57.260Z,3.80
2022-09-23T01:26:39.265Z,3.80
2022-09-23T01:29:38.346Z,3.80
2022-09-23T01:32:45.092Z,3.80
2022-09-23T01:35:42.342Z,3.80
2022-09-23T01:38:30.585Z,3.80
2022-09-23T01:41:19.378Z,3.80
2022-09-23T01:44:06.744Z,3.90
2022-09-23T01:46:37.685Z,3.90
2022-09-23T01:49:26.320Z,4.10
2022-09-23T01:51:58.813Z,4.00
2022-09-23T01:54:34.844Z,4.00
2022-09-23T01:57:12.364Z,4.00
2022-09-23T01:59:40.717Z,3.90
2022-09-23T02:02:19.199Z,3.90
2022-09-23T02:04:50.395Z,3.90
2022-09-23T02:07:25.710Z,4.00
2022-09-23T02:09:57.529Z,4.00
2022-09-23T02:12:24.469Z,3.90
2022-09-23T02:14:53.988Z,3.90
2022-09-23T02:17:30.304Z,3.80
2022-09-23T02:20:01.281Z,3.90
2022-09-23T02:22:54.054Z,3.80
2022-09-23T02:25:21.349Z,3.70
2022-09-23T02:27:55.931Z,3.70
2022-09-23T02:30:27.013Z,3.60
2022-09-23T02:33:00.515Z,3.60
2022-09-23T02:35:35.341Z,3.70
2022-09-23T02:38:26.268Z,3.60
2022-09-23T02:41:14.943Z,3.60
2022-09-23T02:43:49.289Z,3.50
2022-09-23T02:46:15.984Z,3.40
2022-09-23T02:48:53.241Z,3.30
2022-09-23T02:51:19.853Z,3.20
2022-09-23T02:53:46.510Z,3.20
2022-09-23T02:56:19.576Z,3.20
2022-09-23T02:58:50.193Z,3.10
2022-09-23T03:01:32.520Z,3.10
2022-09-23T03:04:20.012Z,3.00
2022-09-23T03:06:46.516Z,3.00
2022-09-23T03:09:24.967Z,3.00
2022-09-23T03:11:56.803Z,3.00
2022-09-23T03:14:28.901Z,3.00
2022-09-23T03:16:58.279Z,3.10
2022-09-23T03:19:49.102Z,3.10
2022-09-23T03:22:23.195Z,3.10
2022-09-23T03:24:53.759Z,3.00
2022-09-23T03:27:23.338Z,3.00
2022-09-23T03:29:50.716Z,3.00
2022-09-23T03:32:18.538Z,2.90
2022-09-23T03:34:48.274Z,3.00
2022-09-23T03:37:50.328Z,3.10
2022-09-23T03:40:39.019Z,3.20
2022-09-23T03:43:05.718Z,3.30
2022-09-23T03:45:32.994Z,3.30
2022-09-23T03:47:59.652Z,3.40
2022-09-23T03:50:26.467Z,3.40
2022-09-23T03:52:53.125Z,3.40
2022-09-23T03:55:19.708Z,3.40
2022-09-23T03:57:46.346Z,3.50
2022-09-23T04:00:13.909Z,3.40
2022-09-23T04:02:40.785Z,3.50
2022-09-23T04:05:08.019Z,3.50
2022-09-23T04:07:34.570Z,3.40
2022-09-23T04:10:01.128Z,3.50
2022-09-23T04:12:27.769Z,3.40
2022-09-23T04:14:54.354Z,3.40
2022-09-23T04:17:20.957Z,3.40
2022-09-23T04:19:47.506Z,3.40
2022-09-23T04:22:14.073Z,3.40
2022-09-23T04:24:40.616Z,3.40
2022-09-23T04:27:07.176Z,3.40
2022-09-23T04:29:33.749Z,3.40
2022-09-23T04:32:00.385Z,3.40
2022-09-23T04:34:26.987Z,3.40
2022-09-23T04:36:53.541Z,3.40
2022-09-23T04:39:20.122Z,3.30
2022-09-23T04:41:46.717Z,3.30
2022-09-23T04:44:13.680Z,3.30
2022-09-23T04:46:47.428Z,3.30
2022-09-23T04:49:14.982Z,3.30
2022-09-23T04:51:43.364Z,3.20
2022-09-23T04:54:11.405Z,3.20
2022-09-23T04:56:37.984Z,3.10
2022-09-23T04:59:04.544Z,3.10
2022-09-23T05:01:32.079Z,3.20
2022-09-23T05:04:02.973Z,3.20
2022-09-23T05:06:30.004Z,3.30
2022-09-23T05:08:57.272Z,3.30
2022-09-23T05:11:24.014Z,3.30
2022-09-23T05:13:51.809Z,3.20
2022-09-23T05:16:19.219Z,3.20
2022-09-23T05:18:46.125Z,3.30
2022-09-23T05:21:14.560Z,3.20
2022-09-23T05:23:41.237Z,3.30
2022-09-23T05:26:11.820Z,3.30
2022-09-23T05:28:39.343Z,3.40
2022-09-23T05:31:15.821Z,3.60
2022-09-23T05:33:51.662Z,3.70
2022-09-23T05:36:18.708Z,3.80
2022-09-23T05:38:45.366Z,4.00
2022-09-23T05:41:13.397Z,4.10
2022-09-23T05:43:40.169Z,4.20
2022-09-23T05:46:08.470Z,4.40
2022-09-23T05:48:35.641Z,4.50
2022-09-23T05:51:02.603Z,4.60
2022-09-23T05:53:29.511Z,4.80
2022-09-23T05:55:58.589Z,4.90
2022-09-23T05:58:25.249Z,5.00
2022-09-23T06:00:51.841Z,5.20
2022-09-23T06:03:19.598Z,5.30
2022-09-23T06:05:46.657Z,5.50
2022-09-23T06:08:13.301Z,5.70
2022-09-23T06:10:40.803Z,5.80
2022-09-23T06:13:08.169Z,5.90
2022-09-23T06:15:35.302Z,6.10
2022-09-23T06:18:01.957Z,6.20
2022-09-23T06:20:28.587Z,6.40
2022-09-23T06:22:56.274Z,6.30
2022-09-23T06:25:22.919Z,6.60
2022-09-23T06:27:54.328Z,6.60
2022-09-23T06:30:24.664Z,6.70
2022-09-23T06:32:51.996Z,6.90
2022-09-23T06:35:26.112Z,7.00
2022-09-23T06:37:54.450Z,7.10
2022-09-23T06:40:22.368Z,7.30
2022-09-23T06:42:52.340Z,7.40
2022-09-23T06:45:19.055Z,7.50
2022-09-23T06:47:45.734Z,7.60
2022-09-23T06:50:14.941Z,7.70
2022-09-23T06:52:41.989Z,8.00
2022-09-23T06:55:11.249Z,8.10
2022-09-23T06:57:37.821Z,8.30
2022-09-23T07:00:04.880Z,8.40
2022-09-23T07:02:31.607Z,8.60
2022-09-23T07:04:58.270Z,8.80
2022-09-23T07:07:26.484Z,9.20
2022-09-23T07:09:53.024Z,9.40
2022-09-23T07:12:20.633Z,9.70
2022-09-23T07:14:47.184Z,9.80
2022-09-23T07:17:13.784Z,10.10
2022-09-23T07:19:40.343Z,10.20
2022-09-23T07:22:06.910Z,10.60
2022-09-23T07:24:34.236Z,10.70
2022-09-23T07:27:02.482Z,11.00
2022-09-23T07:29:34.309Z,11.00
2022-09-23T07:32:13.118Z,11.50
2022-09-23T07:34:40.731Z,12.10
2022-09-23T07:37:07.322Z,12.70
2022-09-23T07:39:34.229Z,13.10
2022-09-23T07:42:01.885Z,13.60
2022-09-23T07:44:29.099Z,13.90
2022-09-23T07:46:55.661Z,14.30
2022-09-23T07:49:22.228Z,14.50
2022-09-23T07:51:48.815Z,14.70
2022-09-23T07:54:15.878Z,14.90
2022-09-23T07:56:42.721Z,15.20
2022-09-23T07:59:12.117Z,15.50
2022-09-23T08:01:41.150Z,16.00
2022-09-23T08:04:17.031Z,16.40
2022-09-23T08:06:48.876Z,16.90
2022-09-23T08:09:16.437Z,17.30
2022-09-23T08:11:43.038Z,17.70
2022-09-23T08:14:10.644Z,17.90
2022-09-23T08:16:37.397Z,18.50
2022-09-23T08:21:35.564Z,18.90
2022-09-23T08:24:02.405Z,18.60
2022-09-23T08:26:29.024Z,19.60
2022-09-23T08:28:56.377Z,19.50
2022-09-23T08:31:23.586Z,20.40
2022-09-23T08:33:57.511Z,20.40
2022-09-23T08:36:24.801Z,20.80
2022-09-23T08:38:51.449Z,21.70
2022-09-23T08:41:32.936Z,22.30
2022-09-23T08:44:03.180Z,22.30
2022-09-23T08:46:39.459Z,22.60
2022-09-23T08:49:07.498Z,21.80
2022-09-23T08:51:42.398Z,21.90
2022-09-23T08:54:10.863Z,22.20
2022-09-23T08:56:38.668Z,22.80
2022-09-23T08:59:23.240Z,23.60
2022-09-23T09:01:55.681Z,24.50
2022-09-23T09:04:35.669Z,24.40
2022-09-23T09:07:24.612Z,24.70
2022-09-23T09:09:52.093Z,24.80
2022-09-23T09:12:20.926Z,24.50
2022-09-23T09:15:07.288Z,24.20
2022-09-23T09:17:54.490Z,24.40
2022-09-23T09:20:24.914Z,24.00
2022-09-23T09:22:57.698Z,23.80
2022-09-23T09:25:34.289Z,23.20
2022-09-23T09:28:01.274Z,22.70
2022-09-23T09:30:27.939Z,22.50
2022-09-23T09:33:02.233Z,21.80
2022-09-23T09:35:38.740Z,21.30
2022-09-23T09:38:07.913Z,21.00
2022-09-23T09:40:35.013Z,22.00
2022-09-23T09:43:04.739Z,22.70
2022-09-23T09:46:09.317Z,22.80
2022-09-23T09:48:41.536Z,22.80
2022-09-23T09:51:24.748Z,22.80
2022-09-23T09:53:54.929Z,22.80
2022-09-23T09:56:27.183Z,22.80
2022-09-23T09:58:54.182Z,23.40
2022-09-23T10:01:29.217Z,23.50
2022-09-23T10:03:59.582Z,23.70
2022-09-23T10:06:32.337Z,23.30
2022-09-23T10:09:01.990Z,23.60
2022-09-23T10:11:29.232Z,23.80
2022-09-23T10:14:17.938Z,23.40
2022-09-23T10:16:45.278Z,23.50
2022-09-23T10:19:30.518Z,23.60
2022-09-23T10:22:00.217Z,23.90
2022-09-23T10:24:32.118Z,23.90
2022-09-23T10:27:02.019Z,24.10
2022-09-23T10:29:33.622Z,24.00
2022-09-23T10:32:20.509Z,23.90
2022-09-23T10:35:08.954Z,24.10
2022-09-23T10:37:40.044Z,23.10
2022-09-23T10:40:48.874Z,22.90
2022-09-23T10:44:03.471Z,22.70
2022-09-23T10:46:38.845Z,23.10
2022-09-23T10:49:37.153Z,23.40
2022-09-23T10:52:15.947Z,23.60
2022-09-23T10:54:57.518Z,23.80
2022-09-23T10:57:46.142Z,24.40
2022-09-23T11:00:22.226Z,24.60
2022-09-23T11:02:49.100Z,24.80
2022-09-23T11:05:24.511Z,24.60
2022-09-23T11:08:18.222Z,24.60
2022-09-23T11:11:00.349Z,24.60
2022-09-23T11:13:37.321Z,25.00
2022-09-23T11:16:17.807Z,24.90
2022-09-23T11:19:14.656Z,24.30
2022-09-23T11:22:01.162Z,23.60
2022-09-23T11:24:50.129Z,23.40
2022-09-23T11:27:51.031Z,22.70
2022-09-23T11:30:19.901Z,22.50
2022-09-23T11:33:17.721Z,22.20
2022-09-23T11:35:49.046Z,22.30
2022-09-23T11:38:25.857Z,22.50
2022-09-23T11:40:56.276Z,22.60
2022-09-23T11:43:24.254Z,22.70
2022-09-23T11:46:10.213Z,22.40
2022-09-23T11:48:41.111Z,22.30
2022-09-23T11:51:37.928Z,22.60
2022-09-23T11:54:22.897Z,22.60
2022-09-23T11:56:54.320Z,22.30
2022-09-23T11:59:40.973Z,22.70
2022-09-23T12:02:26.936Z,22.90
2022-09-23T12:05:17.556Z,23.20
2022-09-23T12:08:21.965Z,23.20
2022-09-23T12:11:01.376Z,22.70
2022-09-23T12:14:02.978Z,22.30
2022-09-23T12:16:36.896Z,22.10
2022-09-23T12:19:30.841Z,22.10
2022-09-23T12:22:14.091Z,22.00
2022-09-23T12:24:47.378Z,22.10
2022-09-23T12:27:23.835Z,22.40
2022-09-23T12:29:54.264Z,22.90
2022-09-23T12:32:21.129Z,23.20
2022-09-23T12:34:48.851Z,23.40
2022-09-23T12:37:36.071Z,23.40
2022-09-23T12:40:07.672Z,23.20
2022-09-23T12:42:34.302Z,22.90
2022-09-23T12:45:33.758Z,22.80
2022-09-23T12:48:27.045Z,22.80
2022-09-23T12:51:02.533Z,22.90
2022-09-23T12:53:59.576Z,23.20
2022-09-23T12:56:38.602Z,23.10
2022-09-23T12:59:25.634Z,23.10
2022-09-23T13:01:52.311Z,23.00
2022-09-23T13:04:48.521Z,23.30
2022-09-23T13:07:16.680Z,23.30
2022-09-23T13:09:48.065Z,23.30
2022-09-23T13:12:29.597Z,23.20
2022-09-23T13:15:00.572Z,23.10
2022-09-23T13:17:33.913Z,23.10
2022-09-23T13:20:20.013Z,23.60
2022-09-23T13:22:49.627Z,24.00
2022-09-23T13:25:21.876Z,24.10
2022-09-23T13:27:50.677Z,23.70
2022-09-23T13:30:25.917Z,23.90
2022-09-23T13:33:14.297Z,23.80
2022-09-23T13:35:51.345Z,24.20
2022-09-23T13:38:26.206Z,24.10
2022-09-23T13:40:54.448Z,23.90
2022-09-23T13:43:27.642Z,23.50
2022-09-23T13:45:55.091Z,23.70
2022-09-23T13:48:23.626Z,23.70
2022-09-23T13:50:51.836Z,23.30
2022-09-23T13:53:25.137Z,23.30
2022-09-23T13:56:18.758Z,23.40
2022-09-23T13:58:45.360Z,23.20
2022-09-23T14:01:41.362Z,23.20
2022-09-23T14:04:24.234Z,23.00
2022-09-23T14:06:51.306Z,22.90
2022-09-23T14:09:18.367Z,22.70
2022-09-23T14:11:44.938Z,23.00
2022-09-23T14:14:12.316Z,23.30
2022-09-23T14:16:39.854Z,23.50
2022-09-23T14:19:07.961Z,23.60
2022-09-23T14:21:36.004Z,23.40
2022-09-23T14:24:32.149Z,23.80
2022-09-23T14:27:10.817Z,23.70
2022-09-23T14:29:38.491Z,23.40
2022-09-23T14:32:20.830Z,23.00
2022-09-23T14:34:59.578Z,22.50
2022-09-23T14:37:56.882Z,22.30
2022-09-23T14:40:29.854Z,22.00
2022-09-23T14:43:04.297Z,21.90
2022-09-23T14:45:38.474Z,22.00
2022-09-23T14:48:16.552Z,22.10
2022-09-23T14:50:48.440Z,22.10
2022-09-23T14:53:26.834Z,22.00
2022-09-23T14:55:57.349Z,21.80
2022-09-23T14:58:27.941Z,21.70
2022-09-23T15:00:56.192Z,21.40
2022-09-23T15:03:22.985Z,21.30
2022-09-23T15:05:50.952Z,21.10
2022-09-23T15:08:21.764Z,20.90
2022-09-23T15:10:48.457Z,20.90
2022-09-23T15:13:21.173Z,20.70
2022-09-23T15:15:47.771Z,20.70
2022-09-23T15:18:22.179Z,20.90
2022-09-23T15:20:57.186Z,20.90
2022-09-23T15:23:44.680Z,20.80
2022-09-23T15:26:18.927Z,21.00
2022-09-23T15:28:45.671Z,21.20
2022-09-23T15:31:22.961Z,21.40
2022-09-23T15:33:50.396Z,21.80
2022-09-23T15:36:21.518Z,22.10
2022-09-23T15:38:48.235Z,22.20
2022-09-23T15:41:15.255Z,21.70
2022-09-23T15:43:41.921Z,21.50
2022-09-23T15:46:29.335Z,20.90
2022-09-23T15:48:58.865Z,20.60
2022-09-23T15:51:26.469Z,20.30
2022-09-23T15:53:55.071Z,20.20
2022-09-23T15:56:22.210Z,19.80
2022-09-23T15:58:48.941Z,19.60
2022-09-23T16:01:25.690Z,19.30
2022-09-23T16:03:52.303Z,19.20
2022-09-23T16:06:20.280Z,19.10
2022-09-23T16:08:47.172Z,18.90
2022-09-23T16:11:21.763Z,18.70
2022-09-23T16:13:48.329Z,18.70
2022-09-23T16:16:15.013Z,18.60
2022-09-23T16:18:43.684Z,18.50
2022-09-23T16:21:12.042Z,18.30
2022-09-23T16:23:39.335Z,18.30
2022-09-23T16:26:08.042Z,18.10
2022-09-23T16:28:34.697Z,17.90
2022-09-23T16:31:01.261Z,17.80
2022-09-23T16:33:27.857Z,17.70
2022-09-23T16:35:54.770Z,17.60
2022-09-23T16:38:21.402Z,17.50
2022-09-23T16:40:48.080Z,17.30
2022-09-23T16:43:14.958Z,17.10
2022-09-23T16:45:41.609Z,16.90
2022-09-23T16:48:08.229Z,16.80
2022-09-23T16:50:34.816Z,16.80
2022-09-23T16:53:01.439Z,16.60
2022-09-23T16:55:28.163Z,16.40
2022-09-23T16:57:55.047Z,16.20
2022-09-23T17:00:40.389Z,16.10
2022-09-23T17:03:25.288Z,15.90
2022-09-23T17:05:51.895Z,15.70
2022-09-23T17:08:18.515Z,15.40
2022-09-23T17:10:45.791Z,15.20
2022-09-23T17:13:15.499Z,15.00
2022-09-23T17:15:42.246Z,14.80
2022-09-23T17:18:08.966Z,14.70
2022-09-23T17:20:35.602Z,14.60
2022-09-23T17:23:05.113Z,14.40
2022-09-23T17:25:33.892Z,14.30
2022-09-23T17:28:00.820Z,14.10
2022-09-23T17:30:27.610Z,14.00
2022-09-23T17:32:54.202Z,13.90
2022-09-23T17:35:21.117Z,13.90
2022-09-23T17:37:47.699Z,13.80
2022-09-23T17:40:14.386Z,13.80
2022-09-23T17:42:41.482Z,13.80
2022-09-23T17:45:12.459Z,13.70
2022-09-23T17:47:41.709Z,13.70
2022-09-23T17:50:08.682Z,13.70
2022-09-23T17:52:35.375Z,13.60
2022-09-23T17:55:02.197Z,13.50
2022-09-23T17:57:28.786Z,13.50
2022-09-23T17:59:55.994Z,13.40
2022-09-23T18:02:22.875Z,13.40
2022-09-23T18:04:49.697Z,13.30
2022-09-23T18:07:16.296Z,13.40
2022-09-23T18:09:42.862Z,13.20
2022-09-23T18:12:09.429Z,13.20
2022-09-23T18:14:36.082Z,13.20
2022-09-23T18:17:02.680Z,13.10
2022-09-23T18:19:29.291Z,13.10
2022-09-23T18:21:57.140Z,13.10
2022-09-23T18:24:32.820Z,13.00
2022-09-23T18:27:00.299Z,13.00
2022-09-23T18:29:26.994Z,13.00
2022-09-23T18:31:53.651Z,12.80
2022-09-23T18:34:20.427Z,12.70
2022-09-23T18:36:47.079Z,12.70
2022-09-23T18:39:13.692Z,12.70
2022-09-23T18:41:41.086Z,12.60
2022-09-23T18:44:07.846Z,12.60
2022-09-23T18:46:34.431Z,12.50
2022-09-23T18:49:19.653Z,12.50
2022-09-23T18:51:50.919Z,12.50
2022-09-23T18:54:17.650Z,12.40
2022-09-23T18:56:44.578Z,12.40
2022-09-23T18:59:17.454Z,12.40
2022-09-23T19:01:45.655Z,12.30
2022-09-23T19:04:13.692Z,12.30
2022-09-23T19:06:40.363Z,12.20
2022-09-23T19:09:07.161Z,12.10
2022-09-23T19:11:36.225Z,12.10
2022-09-23T19:14:04.807Z,12.00
2022-09-23T19:16:31.792Z,11.90
2022-09-23T19:18:59.362Z,11.80
2022-09-23T19:21:26.425Z,11.90
2022-09-23T19:23:54.650Z,11.90
2022-09-23T19:26:24.616Z,11.90
2022-09-23T19:28:53.149Z,11.80
2022-09-23T19:31:33.925Z,11.70
2022-09-23T19:34:09.897Z,11.70
2022-09-23T19:36:38.638Z,11.60
2022-09-23T19:39:11.986Z,11.60
2022-09-23T19:41:38.575Z,11.60
2022-09-23T19:44:07.116Z,11.50
2022-09-23T19:46:36.874Z,11.40
2022-09-23T19:49:04.067Z,11.40
2022-09-23T19:51:31.446Z,11.40
2022-09-23T19:53:58.002Z,11.30
2022-09-23T19:56:24.682Z,11.30
2022-09-23T19:58:54.164Z,11.20
2022-09-23T20:01:21.540Z,11.30
2022-09-23T20:03:48.335Z,11.30
2022-09-23T20:06:15.606Z,11.20
2022-09-23T20:08:42.783Z,11.20
2022-09-23T20:11:12.368Z,11.20
2022-09-23T20:13:39.546Z,11.20
2022-09-23T20:16:11.103Z,11.10
2022-09-23T20:18:38.206Z,11.00
2022-09-23T20:21:08.678Z,11.00
2022-09-23T20:23:35.251Z,11.00
2022-09-23T20:26:21.331Z,10.90
2022-09-23T20:28:48.016Z,10.80
2022-09-23T20:31:15.088Z,10.80
2022-09-23T20:33:41.750Z,10.70
2022-09-23T20:36:09.101Z,10.70
2022-09-23T20:38:36.292Z,10.60
2022-09-23T20:41:02.981Z,10.60
2022-09-23T20:43:33.321Z,10.60
2022-09-23T20:46:01.746Z,10.50
2022-09-23T20:48:29.058Z,10.40
2022-09-23T20:51:02.515Z,10.30
2022-09-23T20:53:29.488Z,10.10
2022-09-23T20:55:56.704Z,10.10
2022-09-23T20:58:27.527Z,10.00
2022-09-23T21:00:54.477Z,9.90
2022-09-23T21:03:21.076Z,9.90
2022-09-23T21:05:47.649Z,9.80
2022-09-23T21:08:15.384Z,9.80
2022-09-23T21:10:42.111Z,9.70
2022-09-23T21:13:08.662Z,9.60
2022-09-23T21:15:35.612Z,9.60
2022-09-23T21:18:02.153Z,9.50
2022-09-23T21:20:28.718Z,9.50
2022-09-23T21:22:56.236Z,9.40
2022-09-23T21:25:28.086Z,9.30
2022-09-23T21:27:55.225Z,9.20
2022-09-23T21:30:22.191Z,9.20
2022-09-23T21:32:48.770Z,9.20
2022-09-23T21:35:18.652Z,9.10
2022-09-23T21:37:45.826Z,9.10
2022-09-23T21:40:31.065Z,9.00
2022-09-23T21:43:01.427Z,9.00
2022-09-23T21:45:28.063Z,9.00
2022-09-23T21:47:54.672Z,9.00
2022-09-23T21:50:21.274Z,9.00
2022-09-23T21:52:50.279Z,9.00
2022-09-23T21:55:16.930Z,8.90
2022-09-23T21:57:44.083Z,8.90
2022-09-23T22:00:11.070Z,8.80
2022-09-23T22:02:39.886Z,8.80
2022-09-23T22:05:07.248Z,8.80
2022-09-23T22:07:37.077Z,8.70
2022-09-23T22:10:05.272Z,8.60
2022-09-23T22:12:32.564Z,8.60
2022-09-23T22:14:59.153Z,8.50
2022-09-23T22:17:25.750Z,8.40
2022-09-23T22:19:52.319Z,8.40
2022-09-23T22:22:19.150Z,8.30
2022-09-23T22:24:46.470Z,8.20
2022-09-23T22:27:13.997Z,8.20
2022-09-23T22:29:59.030Z,8.20
2022-09-23T22:32:40.547Z,8.10
2022-09-23T22:35:17.615Z,8.10
2022-09-23T22:37:44.326Z,8.10
2022-09-23T22:40:15.769Z,8.10
2022-09-23T22:42:42.703Z,8.10
2022-09-23T22:45:10.055Z,8.10
2022-09-23T22:47:37.846Z,8.00
2022-09-23T22:50:05.811Z,8.00
2022-09-23T22:52:33.493Z,8.00
2022-09-23T22:55:00.422Z,8.00
2022-09-23T22:57:27.030Z,8.00
2022-09-23T22:59:54.574Z,8.00
2022-09-23T23:02:23.245Z,7.90
2022-09-23T23:04:49.979Z,8.00
2022-09-23T23:07:21.758Z,7.90
2022-09-23T23:09:51.545Z,8.00
2022-09-23T23:12:19.833Z,8.10
2022-09-23T23:14:47.772Z,8.10
2022-09-23T23:17:14.408Z,8.00
2022-09-23T23:19:40.971Z,8.00
2022-09-23T23:22:07.532Z,8.00
2022-09-23T23:24:34.110Z,7.90
2022-09-23T23:27:00.666Z,7.90
2022-09-23T23:29:27.715Z,7.90
2022-09-23T23:31:54.566Z,7.80
2022-09-23T23:34:21.373Z,7.80
2022-09-23T23:36:54.380Z,7.80
2022-09-23T23:39:23.438Z,7.70
2022-09-23T23:41:56.966Z,7.70
2022-09-23T23:44:24.492Z,7.60
2022-09-23T23:46:51.264Z,7.60
2022-09-23T23:49:17.865Z,7.60
2022-09-23T23:51:44.686Z,7.60
2022-09-23T23:54:11.963Z,7.70
2022-09-23T23:56:38.526Z,7.70
2022-09-23T23:59:05.113Z,7.70
